sensor_id;sensor_type;location;lat;lon;timestamp;P1;durP1;ratioP1;P2;durP2;ratioP2
30020;SDS011;16861;52.294;7.760;2022-11-18T00:01:12;116.05;;;11.02;;
30020;SDS011;16861;52.294;7.760;2022-11-18T00:03:40;83.55;;;9.90;;
30020;SDS011;16861;52.294;7.760;2022-11-18T00:06:12;94.30;;;11.80;;
30020;SDS011;16861;52.294;7.760;2022-11-18T00:11:08;46.80;;;8.63;;
30020;SDS011;16861;52.294;7.760;2022-11-18T00:13:58;66.68;;;8.95;;
30020;SDS011;16861;52.294;7.760;2022-11-18T00:16:47;63.03;;;9.48;;
30020;SDS011;16861;52.294;7.760;2022-11-18T00:19:27;65.60;;;10.52;;
30020;SDS011;16861;52.294;7.760;2022-11-18T00:21:58;84.32;;;10.80;;
30020;SDS011;16861;52.294;7.760;2022-11-18T00:24:25;88.30;;;10.27;;
30020;SDS011;16861;52.294;7.760;2022-11-18T00:26:52;100.22;;;10.60;;
30020;SDS011;16861;52.294;7.760;2022-11-18T00:29:19;138.07;;;11.60;;
30020;SDS011;16861;52.294;7.760;2022-11-18T00:31:47;147.73;;;12.20;;
30020;SDS011;16861;52.294;7.760;2022-11-18T00:34:15;171.38;;;11.65;;
30020;SDS011;16861;52.294;7.760;2022-11-18T00:36:43;192.32;;;11.90;;
30020;SDS011;16861;52.294;7.760;2022-11-18T00:39:12;157.52;;;11.65;;
30020;SDS011;16861;52.294;7.760;2022-11-18T00:41:40;155.88;;;11.38;;
30020;SDS011;16861;52.294;7.760;2022-11-18T00:44:26;123.20;;;10.02;;
30020;SDS011;16861;52.294;7.760;2022-11-18T00:46:52;129.55;;;12.73;;
30020;SDS011;16861;52.294;7.760;2022-11-18T00:49:19;151.27;;;11.45;;
30020;SDS011;16861;52.294;7.760;2022-11-18T00:51:46;140.25;;;10.35;;
30020;SDS011;16861;52.294;7.760;2022-11-18T00:54:12;210.43;;;13.73;;
30020;SDS011;16861;52.294;7.760;2022-11-18T00:56:39;153.32;;;10.80;;
30020;SDS011;16861;52.294;7.760;2022-11-18T00:59:06;120.47;;;10.32;;
30020;SDS011;16861;52.294;7.760;2022-11-18T01:01:32;220.38;;;14.52;;
30020;SDS011;16861;52.294;7.760;2022-11-18T01:03:59;112.63;;;9.70;;
30020;SDS011;16861;52.294;7.760;2022-11-18T01:06:26;175.07;;;11.02;;
30020;SDS011;16861;52.294;7.760;2022-11-18T01:08:54;146.48;;;10.48;;
30020;SDS011;16861;52.294;7.760;2022-11-18T01:11:20;97.75;;;8.90;;
30020;SDS011;16861;52.294;7.760;2022-11-18T01:14:05;162.02;;;12.30;;
30020;SDS011;16861;52.294;7.760;2022-11-18T01:16:32;207.07;;;14.23;;
30020;SDS011;16861;52.294;7.760;2022-11-18T01:18:59;205.23;;;11.77;;
30020;SDS011;16861;52.294;7.760;2022-11-18T01:21:25;216.40;;;13.88;;
30020;SDS011;16861;52.294;7.760;2022-11-18T01:23:53;99.97;;;9.88;;
30020;SDS011;16861;52.294;7.760;2022-11-18T01:26:20;101.30;;;10.85;;
30020;SDS011;16861;52.294;7.760;2022-11-18T01:28:46;176.55;;;14.65;;
30020;SDS011;16861;52.294;7.760;2022-11-18T01:31:14;130.52;;;11.65;;
30020;SDS011;16861;52.294;7.760;2022-11-18T01:33:43;192.45;;;13.48;;
30020;SDS011;16861;52.294;7.760;2022-11-18T01:36:14;142.00;;;10.80;;
30020;SDS011;16861;52.294;7.760;2022-11-18T01:38:40;110.53;;;10.32;;
30020;SDS011;16861;52.294;7.760;2022-11-18T01:41:07;174.88;;;11.35;;
30020;SDS011;16861;52.294;7.760;2022-11-18T01:46:27;192.88;;;11.93;;
30020;SDS011;16861;52.294;7.760;2022-11-18T01:49:00;142.57;;;10.38;;
30020;SDS011;16861;52.294;7.760;2022-11-18T01:51:32;181.93;;;13.05;;
30020;SDS011;16861;52.294;7.760;2022-11-18T01:54:05;176.10;;;12.82;;
30020;SDS011;16861;52.294;7.760;2022-11-18T01:56:45;204.95;;;12.48;;
30020;SDS011;16861;52.294;7.760;2022-11-18T01:59:19;180.55;;;13.82;;
30020;SDS011;16861;52.294;7.760;2022-11-18T02:01:51;180.95;;;13.18;;
30020;SDS011;16861;52.294;7.760;2022-11-18T02:04:25;192.27;;;12.27;;
30020;SDS011;16861;52.294;7.760;2022-11-18T02:06:52;161.00;;;10.77;;
30020;SDS011;16861;52.294;7.760;2022-11-18T02:09:20;146.32;;;11.18;;
30020;SDS011;16861;52.294;7.760;2022-11-18T02:11:47;191.50;;;12.93;;
30020;SDS011;16861;52.294;7.760;2022-11-18T02:14:23;152.88;;;12.90;;
30020;SDS011;16861;52.294;7.760;2022-11-18T02:17:12;112.25;;;10.02;;
30020;SDS011;16861;52.294;7.760;2022-11-18T02:25:30;89.90;;;9.80;;
30020;SDS011;16861;52.294;7.760;2022-11-18T02:31:01;143.65;;;14.02;;
30020;SDS011;16861;52.294;7.760;2022-11-18T02:33:56;117.72;;;11.43;;
30020;SDS011;16861;52.294;7.760;2022-11-18T02:39:06;176.02;;;13.50;;
30020;SDS011;16861;52.294;7.760;2022-11-18T02:41:38;104.00;;;12.00;;
30020;SDS011;16861;52.294;7.760;2022-11-18T02:44:14;82.40;;;12.00;;
30020;SDS011;16861;52.294;7.760;2022-11-18T02:46:44;117.00;;;12.27;;
30020;SDS011;16861;52.294;7.760;2022-11-18T02:49:19;154.95;;;13.07;;
30020;SDS011;16861;52.294;7.760;2022-11-18T02:51:48;122.00;;;12.05;;
30020;SDS011;16861;52.294;7.760;2022-11-18T02:54:17;128.75;;;14.18;;
30020;SDS011;16861;52.294;7.760;2022-11-18T02:56:45;101.82;;;11.52;;
30020;SDS011;16861;52.294;7.760;2022-11-18T02:59:16;91.30;;;13.00;;
30020;SDS011;16861;52.294;7.760;2022-11-18T03:01:44;101.90;;;11.75;;
30020;SDS011;16861;52.294;7.760;2022-11-18T03:04:12;90.68;;;11.15;;
30020;SDS011;16861;52.294;7.760;2022-11-18T03:06:41;64.57;;;10.27;;
30020;SDS011;16861;52.294;7.760;2022-11-18T03:09:26;99.97;;;12.02;;
30020;SDS011;16861;52.294;7.760;2022-11-18T03:17:10;100.20;;;11.45;;
30020;SDS011;16861;52.294;7.760;2022-11-18T03:22:46;119.32;;;11.73;;
30020;SDS011;16861;52.294;7.760;2022-11-18T03:28:17;127.22;;;11.85;;
30020;SDS011;16861;52.294;7.760;2022-11-18T03:31:12;133.57;;;11.82;;
30020;SDS011;16861;52.294;7.760;2022-11-18T03:36:13;64.60;;;10.15;;
30020;SDS011;16861;52.294;7.760;2022-11-18T03:38:43;110.95;;;11.65;;
30020;SDS011;16861;52.294;7.760;2022-11-18T03:41:13;59.92;;;11.57;;
30020;SDS011;16861;52.294;7.760;2022-11-18T03:43:44;80.00;;;11.98;;
30020;SDS011;16861;52.294;7.760;2022-11-18T03:46:19;94.97;;;12.88;;
30020;SDS011;16861;52.294;7.760;2022-11-18T03:48:50;127.35;;;13.82;;
30020;SDS011;16861;52.294;7.760;2022-11-18T03:51:20;96.35;;;12.00;;
30020;SDS011;16861;52.294;7.760;2022-11-18T03:53:53;106.03;;;13.02;;
30020;SDS011;16861;52.294;7.760;2022-11-18T03:56:33;77.82;;;12.77;;
30020;SDS011;16861;52.294;7.760;2022-11-18T04:02:21;96.97;;;11.75;;
30020;SDS011;16861;52.294;7.760;2022-11-18T04:04:51;58.40;;;11.52;;
30020;SDS011;16861;52.294;7.760;2022-11-18T04:10:15;55.30;;;11.30;;
30020;SDS011;16861;52.294;7.760;2022-11-18T04:15:13;70.28;;;10.85;;
30020;SDS011;16861;52.294;7.760;2022-11-18T04:17:41;57.08;;;10.45;;
30020;SDS011;16861;52.294;7.760;2022-11-18T04:20:12;41.88;;;10.63;;
30020;SDS011;16861;52.294;7.760;2022-11-18T04:22:50;42.40;;;9.95;;
30020;SDS011;16861;52.294;7.760;2022-11-18T04:25:16;53.63;;;10.35;;
30020;SDS011;16861;52.294;7.760;2022-11-18T04:27:43;52.53;;;10.60;;
30020;SDS011;16861;52.294;7.760;2022-11-18T04:30:09;84.50;;;12.13;;
30020;SDS011;16861;52.294;7.760;2022-11-18T04:32:36;60.42;;;11.93;;
30020;SDS011;16861;52.294;7.760;2022-11-18T04:35:03;74.15;;;11.88;;
30020;SDS011;16861;52.294;7.760;2022-11-18T04:37:29;73.28;;;12.95;;
30020;SDS011;16861;52.294;7.760;2022-11-18T04:39:56;55.38;;;11.18;;
30020;SDS011;16861;52.294;7.760;2022-11-18T04:42:24;49.28;;;10.27;;
30020;SDS011;16861;52.294;7.760;2022-11-18T04:44:51;41.00;;;10.75;;
30020;SDS011;16861;52.294;7.760;2022-11-18T04:47:17;116.13;;;13.10;;
30020;SDS011;16861;52.294;7.760;2022-11-18T04:49:44;77.63;;;10.88;;
30020;SDS011;16861;52.294;7.760;2022-11-18T04:52:10;98.03;;;12.13;;
30020;SDS011;16861;52.294;7.760;2022-11-18T04:54:40;70.65;;;10.20;;
30020;SDS011;16861;52.294;7.760;2022-11-18T04:57:06;62.78;;;10.13;;
30020;SDS011;16861;52.294;7.760;2022-11-18T04:59:33;69.00;;;10.70;;
30020;SDS011;16861;52.294;7.760;2022-11-18T05:02:02;69.57;;;9.95;;
30020;SDS011;16861;52.294;7.760;2022-11-18T05:04:30;45.58;;;9.88;;
30020;SDS011;16861;52.294;7.760;2022-11-18T05:06:58;101.00;;;11.00;;
30020;SDS011;16861;52.294;7.760;2022-11-18T05:09:27;57.22;;;10.45;;
30020;SDS011;16861;52.294;7.760;2022-11-18T05:11:57;49.08;;;10.45;;
30020;SDS011;16861;52.294;7.760;2022-11-18T05:14:43;46.63;;;10.52;;
30020;SDS011;16861;52.294;7.760;2022-11-18T05:17:15;50.00;;;12.20;;
30020;SDS011;16861;52.294;7.760;2022-11-18T05:19:41;45.78;;;12.80;;
30020;SDS011;16861;52.294;7.760;2022-11-18T05:22:08;49.05;;;12.10;;
30020;SDS011;16861;52.294;7.760;2022-11-18T05:24:35;33.05;;;12.95;;
30020;SDS011;16861;52.294;7.760;2022-11-18T05:27:03;42.65;;;12.80;;
30020;SDS011;16861;52.294;7.760;2022-11-18T05:29:32;61.67;;;12.27;;
30020;SDS011;16861;52.294;7.760;2022-11-18T05:32:01;79.55;;;13.25;;
30020;SDS011;16861;52.294;7.760;2022-11-18T05:34:27;68.90;;;13.30;;
30020;SDS011;16861;52.294;7.760;2022-11-18T05:36:56;53.35;;;13.52;;
30020;SDS011;16861;52.294;7.760;2022-11-18T05:39:34;65.70;;;13.00;;
30020;SDS011;16861;52.294;7.760;2022-11-18T05:42:00;105.20;;;15.18;;
30020;SDS011;16861;52.294;7.760;2022-11-18T05:44:46;80.85;;;14.55;;
30020;SDS011;16861;52.294;7.760;2022-11-18T05:47:19;57.67;;;13.18;;
30020;SDS011;16861;52.294;7.760;2022-11-18T05:49:48;59.38;;;13.75;;
30020;SDS011;16861;52.294;7.760;2022-11-18T05:52:14;66.63;;;14.43;;
30020;SDS011;16861;52.294;7.760;2022-11-18T05:54:41;45.47;;;13.20;;
30020;SDS011;16861;52.294;7.760;2022-11-18T05:57:13;63.88;;;13.43;;
30020;SDS011;16861;52.294;7.760;2022-11-18T05:59:48;36.13;;;13.10;;
30020;SDS011;16861;52.294;7.760;2022-11-18T06:02:19;55.55;;;14.85;;
30020;SDS011;16861;52.294;7.760;2022-11-18T06:04:57;47.78;;;12.82;;
30020;SDS011;16861;52.294;7.760;2022-11-18T06:07:28;59.60;;;14.63;;
30020;SDS011;16861;52.294;7.760;2022-11-18T06:10:00;51.90;;;13.77;;
30020;SDS011;16861;52.294;7.760;2022-11-18T06:12:33;79.93;;;12.40;;
30020;SDS011;16861;52.294;7.760;2022-11-18T06:15:05;69.07;;;14.48;;
30020;SDS011;16861;52.294;7.760;2022-11-18T06:17:45;66.18;;;13.52;;
30020;SDS011;16861;52.294;7.760;2022-11-18T06:20:31;64.60;;;13.50;;
30020;SDS011;16861;52.294;7.760;2022-11-18T06:23:01;42.67;;;13.13;;
30020;SDS011;16861;52.294;7.760;2022-11-18T06:25:27;70.22;;;13.55;;
30020;SDS011;16861;52.294;7.760;2022-11-18T06:28:00;52.03;;;12.50;;
30020;SDS011;16861;52.294;7.760;2022-11-18T06:30:27;64.30;;;13.70;;
30020;SDS011;16861;52.294;7.760;2022-11-18T06:32:54;32.90;;;12.73;;
30020;SDS011;16861;52.294;7.760;2022-11-18T06:35:20;45.97;;;12.70;;
30020;SDS011;16861;52.294;7.760;2022-11-18T06:37:47;39.72;;;13.25;;
30020;SDS011;16861;52.294;7.760;2022-11-18T06:40:13;24.05;;;11.63;;
30020;SDS011;16861;52.294;7.760;2022-11-18T06:42:40;31.17;;;11.82;;
30020;SDS011;16861;52.294;7.760;2022-11-18T06:45:25;29.02;;;11.27;;
30020;SDS011;16861;52.294;7.760;2022-11-18T06:47:55;21.98;;;9.45;;
30020;SDS011;16861;52.294;7.760;2022-11-18T06:50:22;23.08;;;10.57;;
30020;SDS011;16861;52.294;7.760;2022-11-18T06:52:49;25.98;;;10.05;;
30020;SDS011;16861;52.294;7.760;2022-11-18T06:55:16;25.42;;;9.35;;
30020;SDS011;16861;52.294;7.760;2022-11-18T06:57:42;39.80;;;10.52;;
30020;SDS011;16861;52.294;7.760;2022-11-18T07:00:09;33.90;;;10.35;;
30020;SDS011;16861;52.294;7.760;2022-11-18T07:02:36;27.75;;;9.45;;
30020;SDS011;16861;52.294;7.760;2022-11-18T07:05:03;16.40;;;9.25;;
30020;SDS011;16861;52.294;7.760;2022-11-18T07:07:33;15.68;;;8.85;;
30020;SDS011;16861;52.294;7.760;2022-11-18T07:10:07;14.50;;;9.43;;
30020;SDS011;16861;52.294;7.760;2022-11-18T07:12:34;20.55;;;9.30;;
30020;SDS011;16861;52.294;7.760;2022-11-18T07:15:00;21.58;;;9.23;;
30020;SDS011;16861;52.294;7.760;2022-11-18T07:17:28;24.67;;;9.50;;
30020;SDS011;16861;52.294;7.760;2022-11-18T07:19:55;37.20;;;10.15;;
30020;SDS011;16861;52.294;7.760;2022-11-18T07:22:22;48.90;;;10.93;;
30020;SDS011;16861;52.294;7.760;2022-11-18T07:24:48;39.58;;;10.73;;
30020;SDS011;16861;52.294;7.760;2022-11-18T07:27:14;33.58;;;10.15;;
30020;SDS011;16861;52.294;7.760;2022-11-18T07:29:41;31.90;;;10.77;;
30020;SDS011;16861;52.294;7.760;2022-11-18T07:32:07;21.80;;;9.60;;
30020;SDS011;16861;52.294;7.760;2022-11-18T07:34:34;18.98;;;10.55;;
30020;SDS011;16861;52.294;7.760;2022-11-18T07:37:00;14.75;;;9.13;;
30020;SDS011;16861;52.294;7.760;2022-11-18T07:39:27;15.95;;;9.68;;
30020;SDS011;16861;52.294;7.760;2022-11-18T07:41:53;20.90;;;9.88;;
30020;SDS011;16861;52.294;7.760;2022-11-18T07:44:19;41.17;;;10.00;;
30020;SDS011;16861;52.294;7.760;2022-11-18T07:46:46;22.15;;;10.20;;
30020;SDS011;16861;52.294;7.760;2022-11-18T07:49:12;17.60;;;9.57;;
30020;SDS011;16861;52.294;7.760;2022-11-18T07:51:39;18.75;;;9.70;;
30020;SDS011;16861;52.294;7.760;2022-11-18T07:54:06;33.25;;;11.38;;
30020;SDS011;16861;52.294;7.760;2022-11-18T07:59:12;28.10;;;11.32;;
30020;SDS011;16861;52.294;7.760;2022-11-18T08:01:38;27.45;;;11.40;;
30020;SDS011;16861;52.294;7.760;2022-11-18T08:04:06;21.65;;;10.45;;
30020;SDS011;16861;52.294;7.760;2022-11-18T08:06:37;20.98;;;9.98;;
30020;SDS011;16861;52.294;7.760;2022-11-18T08:09:05;19.17;;;10.32;;
30020;SDS011;16861;52.294;7.760;2022-11-18T08:11:32;16.17;;;10.27;;
30020;SDS011;16861;52.294;7.760;2022-11-18T08:13:59;19.65;;;9.75;;
30020;SDS011;16861;52.294;7.760;2022-11-18T08:16:26;45.33;;;11.13;;
30020;SDS011;16861;52.294;7.760;2022-11-18T08:18:53;20.35;;;10.65;;
30020;SDS011;16861;52.294;7.760;2022-11-18T08:21:21;31.52;;;10.70;;
30020;SDS011;16861;52.294;7.760;2022-11-18T08:23:48;16.88;;;10.77;;
30020;SDS011;16861;52.294;7.760;2022-11-18T08:26:17;15.73;;;10.82;;
30020;SDS011;16861;52.294;7.760;2022-11-18T08:28:44;15.77;;;9.93;;
30020;SDS011;16861;52.294;7.760;2022-11-18T08:31:11;20.27;;;9.60;;
30020;SDS011;16861;52.294;7.760;2022-11-18T08:33:40;25.17;;;10.00;;
30020;SDS011;16861;52.294;7.760;2022-11-18T08:36:13;26.65;;;9.38;;
30020;SDS011;16861;52.294;7.760;2022-11-18T08:38:42;24.05;;;9.95;;
30020;SDS011;16861;52.294;7.760;2022-11-18T08:41:12;13.25;;;8.68;;
30020;SDS011;16861;52.294;7.760;2022-11-18T08:43:40;17.83;;;8.98;;
30020;SDS011;16861;52.294;7.760;2022-11-18T08:46:07;12.93;;;8.27;;
30020;SDS011;16861;52.294;7.760;2022-11-18T08:48:33;9.38;;;7.45;;
30020;SDS011;16861;52.294;7.760;2022-11-18T08:51:00;10.57;;;7.68;;
30020;SDS011;16861;52.294;7.760;2022-11-18T08:53:27;9.20;;;6.72;;
30020;SDS011;16861;52.294;7.760;2022-11-18T08:55:57;10.23;;;6.63;;
30020;SDS011;16861;52.294;7.760;2022-11-18T08:58:24;8.35;;;6.50;;
30020;SDS011;16861;52.294;7.760;2022-11-18T09:00:51;10.30;;;6.90;;
30020;SDS011;16861;52.294;7.760;2022-11-18T09:03:18;9.55;;;6.78;;
30020;SDS011;16861;52.294;7.760;2022-11-18T09:05:45;11.82;;;7.28;;
30020;SDS011;16861;52.294;7.760;2022-11-18T09:08:12;10.93;;;7.47;;
30020;SDS011;16861;52.294;7.760;2022-11-18T09:10:38;14.20;;;7.85;;
30020;SDS011;16861;52.294;7.760;2022-11-18T09:13:05;13.40;;;7.82;;
30020;SDS011;16861;52.294;7.760;2022-11-18T09:15:51;9.05;;;6.75;;
30020;SDS011;16861;52.294;7.760;2022-11-18T09:18:18;11.73;;;7.00;;
30020;SDS011;16861;52.294;7.760;2022-11-18T09:20:52;10.63;;;7.82;;
30020;SDS011;16861;52.294;7.760;2022-11-18T09:23:20;14.82;;;8.27;;
30020;SDS011;16861;52.294;7.760;2022-11-18T09:25:47;13.32;;;7.72;;
30020;SDS011;16861;52.294;7.760;2022-11-18T09:28:14;14.75;;;8.48;;
30020;SDS011;16861;52.294;7.760;2022-11-18T09:30:40;12.02;;;7.78;;
30020;SDS011;16861;52.294;7.760;2022-11-18T09:33:07;15.50;;;9.02;;
30020;SDS011;16861;52.294;7.760;2022-11-18T09:35:33;18.13;;;9.57;;
30020;SDS011;16861;52.294;7.760;2022-11-18T09:38:00;17.77;;;9.02;;
30020;SDS011;16861;52.294;7.760;2022-11-18T09:40:26;16.65;;;9.25;;
30020;SDS011;16861;52.294;7.760;2022-11-18T09:43:11;24.17;;;8.93;;
30020;SDS011;16861;52.294;7.760;2022-11-18T09:45:52;17.08;;;8.05;;
30020;SDS011;16861;52.294;7.760;2022-11-18T09:48:26;35.35;;;9.40;;
30020;SDS011;16861;52.294;7.760;2022-11-18T09:51:13;35.78;;;9.93;;
30020;SDS011;16861;52.294;7.760;2022-11-18T09:53:41;41.80;;;9.98;;
30020;SDS011;16861;52.294;7.760;2022-11-18T09:56:14;30.33;;;9.80;;
30020;SDS011;16861;52.294;7.760;2022-11-18T09:58:41;27.45;;;9.45;;
30020;SDS011;16861;52.294;7.760;2022-11-18T10:01:18;20.80;;;9.25;;
30020;SDS011;16861;52.294;7.760;2022-11-18T10:03:46;12.52;;;9.38;;
30020;SDS011;16861;52.294;7.760;2022-11-18T10:06:20;15.27;;;9.50;;
30020;SDS011;16861;52.294;7.760;2022-11-18T10:11:36;13.25;;;8.88;;
30020;SDS011;16861;52.294;7.760;2022-11-18T10:22:10;17.33;;;9.63;;
30020;SDS011;16861;52.294;7.760;2022-11-18T10:24:53;11.77;;;8.43;;
30020;SDS011;16861;52.294;7.760;2022-11-18T10:27:23;13.77;;;8.43;;
30020;SDS011;16861;52.294;7.760;2022-11-18T10:29:53;12.55;;;8.77;;
30020;SDS011;16861;52.294;7.760;2022-11-18T10:32:22;12.32;;;8.68;;
30020;SDS011;16861;52.294;7.760;2022-11-18T10:34:53;12.73;;;9.15;;
30020;SDS011;16861;52.294;7.760;2022-11-18T10:40:25;15.00;;;8.50;;
30020;SDS011;16861;52.294;7.760;2022-11-18T10:42:53;13.70;;;8.50;;
30020;SDS011;16861;52.294;7.760;2022-11-18T10:47:56;11.18;;;8.18;;
30020;SDS011;16861;52.294;7.760;2022-11-18T10:50:27;10.32;;;7.78;;
30020;SDS011;16861;52.294;7.760;2022-11-18T10:52:58;10.05;;;7.38;;
30020;SDS011;16861;52.294;7.760;2022-11-18T10:55:25;9.13;;;7.43;;
30020;SDS011;16861;52.294;7.760;2022-11-18T10:57:57;9.50;;;7.25;;
30020;SDS011;16861;52.294;7.760;2022-11-18T11:00:47;8.98;;;6.38;;
30020;SDS011;16861;52.294;7.760;2022-11-18T11:09:21;7.00;;;5.03;;
30020;SDS011;16861;52.294;7.760;2022-11-18T11:14:22;8.20;;;5.82;;
30020;SDS011;16861;52.294;7.760;2022-11-18T11:19:42;9.25;;;6.35;;
30020;SDS011;16861;52.294;7.760;2022-11-18T11:22:29;10.73;;;7.35;;
30020;SDS011;16861;52.294;7.760;2022-11-18T11:24:55;8.57;;;6.55;;
30020;SDS011;16861;52.294;7.760;2022-11-18T11:35:35;12.25;;;8.05;;
30020;SDS011;16861;52.294;7.760;2022-11-18T11:38:17;10.43;;;8.05;;
30020;SDS011;16861;52.294;7.760;2022-11-18T11:40:54;10.60;;;7.57;;
30020;SDS011;16861;52.294;7.760;2022-11-18T11:46:16;13.90;;;8.45;;
30020;SDS011;16861;52.294;7.760;2022-11-18T11:54:21;12.77;;;8.77;;
30020;SDS011;16861;52.294;7.760;2022-11-18T11:56:58;13.30;;;9.27;;
30020;SDS011;16861;52.294;7.760;2022-11-18T12:04:52;13.98;;;9.48;;
30020;SDS011;16861;52.294;7.760;2022-11-18T12:07:36;15.00;;;9.52;;
30020;SDS011;16861;52.294;7.760;2022-11-18T12:12:51;12.65;;;9.40;;
30020;SDS011;16861;52.294;7.760;2022-11-18T12:18:20;14.30;;;9.95;;
30020;SDS011;16861;52.294;7.760;2022-11-18T12:20:52;13.18;;;9.32;;
30020;SDS011;16861;52.294;7.760;2022-11-18T12:23:21;14.23;;;9.35;;
30020;SDS011;16861;52.294;7.760;2022-11-18T12:25:53;15.97;;;9.73;;
30020;SDS011;16861;52.294;7.760;2022-11-18T12:31:41;15.93;;;9.70;;
30020;SDS011;16861;52.294;7.760;2022-11-18T12:33:52;16.35;;;10.43;;
30020;SDS011;16861;52.294;7.760;2022-11-18T12:38:50;16.17;;;10.40;;
30020;SDS011;16861;52.294;7.760;2022-11-18T12:44:25;15.38;;;10.48;;
30020;SDS011;16861;52.294;7.760;2022-11-18T12:46:54;19.02;;;10.88;;
30020;SDS011;16861;52.294;7.760;2022-11-18T12:51:49;19.75;;;11.40;;
30020;SDS011;16861;52.294;7.760;2022-11-18T12:56:54;20.52;;;12.05;;
30020;SDS011;16861;52.294;7.760;2022-11-18T12:59:25;17.65;;;11.50;;
30020;SDS011;16861;52.294;7.760;2022-11-18T13:02:00;18.20;;;10.85;;
30020;SDS011;16861;52.294;7.760;2022-11-18T13:08:08;15.48;;;10.25;;
30020;SDS011;16861;52.294;7.760;2022-11-18T13:13:52;15.93;;;10.82;;
30020;SDS011;16861;52.294;7.760;2022-11-18T13:16:11;18.55;;;10.35;;
30020;SDS011;16861;52.294;7.760;2022-11-18T13:19:22;16.00;;;10.02;;
30020;SDS011;16861;52.294;7.760;2022-11-18T13:21:56;15.02;;;10.10;;
30020;SDS011;16861;52.294;7.760;2022-11-18T13:24:46;17.55;;;10.98;;
30020;SDS011;16861;52.294;7.760;2022-11-18T13:27:21;18.10;;;10.35;;
30020;SDS011;16861;52.294;7.760;2022-11-18T13:30:03;18.65;;;10.55;;
30020;SDS011;16861;52.294;7.760;2022-11-18T13:32:43;15.82;;;10.20;;
30020;SDS011;16861;52.294;7.760;2022-11-18T13:37:52;15.90;;;10.25;;
30020;SDS011;16861;52.294;7.760;2022-11-18T13:40:24;15.48;;;10.57;;
30020;SDS011;16861;52.294;7.760;2022-11-18T13:43:08;15.10;;;10.38;;
30020;SDS011;16861;52.294;7.760;2022-11-18T13:45:36;18.30;;;10.57;;
30020;SDS011;16861;52.294;7.760;2022-11-18T13:48:06;16.45;;;10.13;;
30020;SDS011;16861;52.294;7.760;2022-11-18T13:53:36;15.65;;;9.00;;
30020;SDS011;16861;52.294;7.760;2022-11-18T13:58:39;13.43;;;9.43;;
30020;SDS011;16861;52.294;7.760;2022-11-18T14:01:29;16.88;;;10.60;;
30020;SDS011;16861;52.294;7.760;2022-11-18T14:06:30;15.50;;;10.75;;
30020;SDS011;16861;52.294;7.760;2022-11-18T14:11:37;16.65;;;11.10;;
30020;SDS011;16861;52.294;7.760;2022-11-18T14:14:25;16.83;;;10.98;;
30020;SDS011;16861;52.294;7.760;2022-11-18T14:17:01;17.73;;;11.57;;
30020;SDS011;16861;52.294;7.760;2022-11-18T14:19:30;17.35;;;10.82;;
30020;SDS011;16861;52.294;7.760;2022-11-18T14:27:38;14.40;;;9.52;;
30020;SDS011;16861;52.294;7.760;2022-11-18T14:30:25;12.82;;;8.52;;
30020;SDS011;16861;52.294;7.760;2022-11-18T14:35:39;12.43;;;8.15;;
30020;SDS011;16861;52.294;7.760;2022-11-18T14:38:15;11.80;;;8.32;;
30020;SDS011;16861;52.294;7.760;2022-11-18T14:41:24;11.23;;;7.82;;
30020;SDS011;16861;52.294;7.760;2022-11-18T14:44:10;11.35;;;7.63;;
30020;SDS011;16861;52.294;7.760;2022-11-18T14:46:38;15.88;;;9.45;;
30020;SDS011;16861;52.294;7.760;2022-11-18T14:49:11;13.27;;;8.45;;
30020;SDS011;16861;52.294;7.760;2022-11-18T14:51:40;14.32;;;9.20;;
30020;SDS011;16861;52.294;7.760;2022-11-18T14:54:10;15.25;;;8.75;;
30020;SDS011;16861;52.294;7.760;2022-11-18T14:56:37;13.80;;;8.73;;
30020;SDS011;16861;52.294;7.760;2022-11-18T14:59:04;12.02;;;8.43;;
30020;SDS011;16861;52.294;7.760;2022-11-18T15:01:31;12.70;;;8.13;;
30020;SDS011;16861;52.294;7.760;2022-11-18T15:03:57;11.27;;;8.18;;
30020;SDS011;16861;52.294;7.760;2022-11-18T15:06:23;10.18;;;7.60;;
30020;SDS011;16861;52.294;7.760;2022-11-18T15:08:51;13.60;;;8.98;;
30020;SDS011;16861;52.294;7.760;2022-11-18T15:11:18;13.25;;;8.68;;
30020;SDS011;16861;52.294;7.760;2022-11-18T15:13:44;14.15;;;9.65;;
30020;SDS011;16861;52.294;7.760;2022-11-18T15:18:47;12.98;;;8.60;;
30020;SDS011;16861;52.294;7.760;2022-11-18T15:21:15;12.50;;;9.32;;
30020;SDS011;16861;52.294;7.760;2022-11-18T15:23:42;12.52;;;8.07;;
30020;SDS011;16861;52.294;7.760;2022-11-18T15:26:19;10.90;;;8.57;;
30020;SDS011;16861;52.294;7.760;2022-11-18T15:28:54;10.18;;;7.53;;
30020;SDS011;16861;52.294;7.760;2022-11-18T15:31:22;10.23;;;7.80;;
30020;SDS011;16861;52.294;7.760;2022-11-18T15:33:49;10.38;;;7.60;;
30020;SDS011;16861;52.294;7.760;2022-11-18T15:36:17;10.75;;;7.85;;
30020;SDS011;16861;52.294;7.760;2022-11-18T15:38:45;10.15;;;7.50;;
30020;SDS011;16861;52.294;7.760;2022-11-18T15:41:25;10.48;;;7.90;;
30020;SDS011;16861;52.294;7.760;2022-11-18T15:43:54;11.20;;;7.82;;
30020;SDS011;16861;52.294;7.760;2022-11-18T15:46:23;9.88;;;7.03;;
30020;SDS011;16861;52.294;7.760;2022-11-18T15:48:54;9.48;;;6.82;;
30020;SDS011;16861;52.294;7.760;2022-11-18T15:51:23;8.93;;;6.43;;
30020;SDS011;16861;52.294;7.760;2022-11-18T15:53:50;8.07;;;6.43;;
30020;SDS011;16861;52.294;7.760;2022-11-18T15:58:59;9.88;;;5.95;;
30020;SDS011;16861;52.294;7.760;2022-11-18T16:01:28;8.25;;;6.10;;
30020;SDS011;16861;52.294;7.760;2022-11-18T16:03:57;8.52;;;5.68;;
30020;SDS011;16861;52.294;7.760;2022-11-18T16:06:34;7.53;;;5.07;;
30020;SDS011;16861;52.294;7.760;2022-11-18T16:09:01;7.47;;;5.63;;
30020;SDS011;16861;52.294;7.760;2022-11-18T16:11:29;7.45;;;5.38;;
30020;SDS011;16861;52.294;7.760;2022-11-18T16:14:16;7.38;;;5.57;;
30020;SDS011;16861;52.294;7.760;2022-11-18T16:16:45;8.07;;;6.10;;
30020;SDS011;16861;52.294;7.760;2022-11-18T16:19:13;7.22;;;5.68;;
30020;SDS011;16861;52.294;7.760;2022-11-18T16:21:52;10.13;;;6.53;;
30020;SDS011;16861;52.294;7.760;2022-11-18T16:24:22;8.88;;;6.68;;
30020;SDS011;16861;52.294;7.760;2022-11-18T16:26:50;9.95;;;7.20;;
30020;SDS011;16861;52.294;7.760;2022-11-18T16:29:17;8.43;;;6.88;;
30020;SDS011;16861;52.294;7.760;2022-11-18T16:31:47;8.95;;;6.63;;
30020;SDS011;16861;52.294;7.760;2022-11-18T16:34:20;9.18;;;6.78;;
30020;SDS011;16861;52.294;7.760;2022-11-18T16:36:49;8.25;;;6.53;;
30020;SDS011;16861;52.294;7.760;2022-11-18T16:39:19;9.05;;;6.95;;
30020;SDS011;16861;52.294;7.760;2022-11-18T16:41:51;9.75;;;7.15;;
30020;SDS011;16861;52.294;7.760;2022-11-18T16:44:19;10.38;;;7.75;;
30020;SDS011;16861;52.294;7.760;2022-11-18T16:46:52;9.65;;;7.50;;
30020;SDS011;16861;52.294;7.760;2022-11-18T16:49:23;10.93;;;8.07;;
30020;SDS011;16861;52.294;7.760;2022-11-18T16:51:53;10.25;;;8.25;;
30020;SDS011;16861;52.294;7.760;2022-11-18T16:54:27;12.52;;;9.40;;
30020;SDS011;16861;52.294;7.760;2022-11-18T16:56:56;13.53;;;9.60;;
30020;SDS011;16861;52.294;7.760;2022-11-18T16:59:24;13.75;;;9.60;;
30020;SDS011;16861;52.294;7.760;2022-11-18T17:01:54;16.25;;;10.68;;
30020;SDS011;16861;52.294;7.760;2022-11-18T17:04:23;16.40;;;10.93;;
30020;SDS011;16861;52.294;7.760;2022-11-18T17:06:51;15.95;;;10.45;;
30020;SDS011;16861;52.294;7.760;2022-11-18T17:09:19;17.00;;;11.70;;
30020;SDS011;16861;52.294;7.760;2022-11-18T17:11:47;16.85;;;12.13;;